Time;durP1;ratioP1;P1;durP2;ratioP2;P2;SDS_P1;SDS_P2;PMS_P1;PMS_P2;Temp;Humidity;BMP_temperature;BMP_pressure;BME280_temperature;BME280_humidity;BME280_pressure;Samples;Min_cycle;Max_cycle;Signal;HPM_P1;HPM_P2
2024/02/14 00:01:08;;;;;;;4.43;1.50;;;10.30;95.30;;;;;;5025812;28;20481;-83
2024/02/14 00:03:34;;;;;;;1.90;1.13;;;10.30;99.90;;;;;;5007736;28;20179;-84
2024/02/14 00:06:00;;;;;;;2.47;1.47;;;10.30;99.90;;;;;;5017388;28;20517;-82
2024/02/14 00:08:26;;;;;;;3.20;1.40;;;10.30;99.90;;;;;;5019519;28;20496;-83
2024/02/14 00:10:51;;;;;;;1.90;1.17;;;10.30;99.90;;;;;;5018214;28;20183;-83
2024/02/14 00:13:20;;;;;;;1.90;1.50;;;10.30;1.00;;;;;;5031349;28;20186;-83
2024/02/14 00:15:46;;;;;;;2.90;1.33;;;10.30;1.00;;;;;;5018485;28;20194;-84
2024/02/14 00:18:12;;;;;;;5.47;1.47;;;10.30;1.00;;;;;;5015506;28;20496;-85
2024/02/14 00:20:39;;;;;;;2.47;1.80;;;10.40;1.00;;;;;;5021616;28;20501;-84
2024/02/14 00:23:04;;;;;;;3.40;1.60;;;10.40;1.00;;;;;;5020291;28;20465;-84
2024/02/14 00:25:30;;;;;;;2.73;1.20;;;10.40;1.00;;;;;;5023174;28;20467;-85
2024/02/14 00:27:55;;;;;;;4.03;1.30;;;10.40;1.00;;;;;;5023619;28;20203;-83
2024/02/14 00:30:23;;;;;;;2.43;1.60;;;10.40;47.10;;;;;;5021645;28;20187;-83
2024/02/14 00:32:48;;;;;;;3.63;2.27;;;10.40;99.90;;;;;;5024171;28;20186;-84
2024/02/14 00:35:14;;;;;;;1.90;1.30;;;10.40;99.90;;;;;;5010678;28;20438;-84
2024/02/14 00:37:39;;;;;;;4.43;1.37;;;10.40;1.00;;;;;;5024302;28;20210;-83
2024/02/14 00:40:06;;;;;;;3.27;1.73;;;10.40;1.20;;;;;;5031993;28;20193;-85
2024/02/14 00:42:31;;;;;;;1.67;1.20;;;10.40;99.90;;;;;;5025933;28;20552;-85
2024/02/14 00:44:57;;;;;;;1.87;1.33;;;10.40;99.90;;;;;;5028361;28;20437;-85
2024/02/14 00:47:22;;;;;;;6.10;1.57;;;10.40;1.00;;;;;;5030775;28;20646;-83
2024/02/14 00:49:48;;;;;;;2.03;1.50;;;10.40;1.00;;;;;;5022119;28;20179;-84
2024/02/14 00:52:14;;;;;;;2.87;1.43;;;10.40;99.90;;;;;;5021889;28;20194;-83
2024/02/14 00:54:39;;;;;;;3.03;1.40;;;10.40;99.90;;;;;;5022832;28;20198;-84
2024/02/14 00:57:05;;;;;;;4.27;1.43;;;10.40;1.00;;;;;;5031155;28;20444;-84
2024/02/14 00:59:30;;;;;;;1.80;1.37;;;10.40;1.00;;;;;;5023395;28;20783;-82
2024/02/14 01:01:56;;;;;;;2.53;1.50;;;10.40;90.90;;;;;;5018822;28;20203;-84
2024/02/14 01:04:22;;;;;;;3.10;1.60;;;10.40;99.90;;;;;;5017532;28;20206;-83
2024/02/14 01:06:49;;;;;;;2.40;1.30;;;10.40;99.90;;;;;;5011707;28;20648;-83
2024/02/14 01:09:15;;;;;;;2.30;1.30;;;10.40;99.90;;;;;;5021648;28;20222;-83
2024/02/14 01:11:40;;;;;;;1.80;1.50;;;10.40;99.90;;;;;;5020339;28;20436;-85
2024/02/14 01:14:06;;;;;;;2.60;1.27;;;10.40;99.90;;;;;;5024728;28;20198;-83
2024/02/14 01:16:31;;;;;;;2.50;1.63;;;10.40;99.90;;;;;;5004785;28;20190;-84
2024/02/14 01:18:57;;;;;;;7.10;1.60;;;10.40;99.90;;;;;;5032200;28;20207;-85
2024/02/14 01:21:22;;;;;;;2.60;1.47;;;10.40;1.00;;;;;;5023090;28;20230;-85
2024/02/14 01:23:48;;;;;;;3.33;1.80;;;10.40;1.00;;;;;;5018224;28;20175;-83
2024/02/14 01:26:14;;;;;;;1.40;1.30;;;10.40;1.00;;;;;;5023012;28;20232;-82
2024/02/14 01:28:40;;;;;;;3.60;1.50;;;10.40;1.00;;;;;;5021099;28;20208;-84
2024/02/14 01:31:05;;;;;;;1.93;1.13;;;10.40;1.00;;;;;;5025371;28;20442;-82
2024/02/14 01:33:31;;;;;;;3.80;1.57;;;10.40;1.00;;;;;;5030969;28;20191;-85
2024/02/14 01:35:57;;;;;;;4.17;2.10;;;10.40;1.00;;;;;;5010550;28;20269;-84
2024/02/14 01:38:23;;;;;;;3.27;1.30;;;10.50;1.00;;;;;;5013117;28;20511;-83
2024/02/14 01:40:49;;;;;;;3.43;1.40;;;10.50;1.00;;;;;;5018656;28;20474;-83
2024/02/14 01:43:14;;;;;;;1.77;1.63;;;10.40;1.00;;;;;;5026710;28;20463;-83
2024/02/14 01:45:40;;;;;;;3.10;1.33;;;10.40;1.00;;;;;;5022139;28;20548;-84
2024/02/14 01:48:07;;;;;;;2.40;1.30;;;10.40;1.00;;;;;;5015593;28;20257;-84
2024/02/14 01:50:34;;;;;;;3.63;1.67;;;10.50;1.00;;;;;;5020144;28;20438;-85
2024/02/14 01:53:01;;;;;;;2.10;1.30;;;10.50;1.00;;;;;;5021297;28;20445;-84
2024/02/14 01:55:29;;;;;;;1.67;1.30;;;10.50;1.00;;;;;;5028973;28;20441;-84
2024/02/14 01:57:55;;;;;;;2.50;1.20;;;10.50;1.00;;;;;;5022264;28;20449;-84
2024/02/14 02:00:21;;;;;;;1.77;1.30;;;10.50;1.00;;;;;;5023399;28;20538;-82
2024/02/14 02:02:47;;;;;;;3.33;1.40;;;10.50;1.00;;;;;;5017812;28;20258;-83
2024/02/14 02:05:13;;;;;;;2.23;1.77;;;10.50;1.00;;;;;;5014815;28;20453;-82
2024/02/14 02:07:42;;;;;;;2.10;1.70;;;10.50;1.00;;;;;;5004641;28;20468;-84
2024/02/14 02:10:11;;;;;;;1.90;1.40;;;10.50;1.00;;;;;;5018636;28;20427;-86
2024/02/14 02:12:38;;;;;;;1.97;1.60;;;10.50;1.00;;;;;;5024392;28;21686;-84
2024/02/14 02:15:06;;;;;;;3.60;2.47;;;10.50;1.00;;;;;;5025782;28;20454;-86
2024/02/14 02:17:34;;;;;;;2.60;1.50;;;10.50;1.00;;;;;;5029080;28;20432;-85
2024/02/14 02:20:00;;;;;;;4.10;1.60;;;10.60;1.00;;;;;;5009119;28;20505;-84
2024/02/14 02:22:26;;;;;;;2.30;1.77;;;10.60;1.00;;;;;;5017481;28;20438;-85
2024/02/14 02:24:51;;;;;;;3.47;1.97;;;10.60;1.00;;;;;;5022470;28;20459;-83
2024/02/14 02:27:17;;;;;;;4.30;2.03;;;10.60;1.00;;;;;;5025290;28;20183;-84
2024/02/14 02:29:42;;;;;;;2.80;1.53;;;10.60;1.00;;;;;;5015068;28;20218;-84
2024/02/14 02:32:09;;;;;;;2.83;1.60;;;10.60;15.10;;;;;;5018746;28;20182;-86
2024/02/14 02:34:38;;;;;;;2.67;1.90;;;10.60;41.20;;;;;;4998706;28;20185;-84
2024/02/14 02:37:07;;;;;;;2.40;1.80;;;10.60;45.30;;;;;;5023233;28;20802;-85
2024/02/14 02:39:33;;;;;;;3.53;1.80;;;10.60;99.90;;;;;;5021265;28;20449;-83
2024/02/14 02:41:59;;;;;;;2.13;1.93;;;10.60;99.90;;;;;;5016937;28;20476;-85
2024/02/14 02:44:25;;;;;;;5.00;2.00;;;10.60;99.90;;;;;;5007077;28;20437;-86
2024/02/14 02:46:50;;;;;;;2.20;1.77;;;10.60;99.90;;;;;;5027051;28;20178;-85
2024/02/14 02:49:16;;;;;;;4.23;2.73;;;10.60;99.90;;;;;;5029796;28;20195;-83
2024/02/14 02:51:41;;;;;;;3.83;1.70;;;10.60;99.90;;;;;;5027271;28;20197;-85
2024/02/14 02:54:08;;;;;;;4.13;2.00;;;10.60;99.90;;;;;;5014341;28;20179;-85
2024/02/14 02:56:34;;;;;;;3.27;2.40;;;10.60;99.90;;;;;;5014200;28;20577;-84
2024/02/14 02:58:59;;;;;;;3.10;2.03;;;10.60;99.90;;;;;;5016875;28;20548;-83
2024/02/14 03:01:28;;;;;;;2.87;2.20;;;10.60;99.90;;;;;;5010139;28;20221;-83
2024/02/14 03:03:53;;;;;;;3.10;2.23;;;10.60;99.90;;;;;;5018828;28;20185;-86
2024/02/14 03:06:20;;;;;;;3.50;2.43;;;10.50;99.90;;;;;;5026805;28;20438;-82
2024/02/14 03:08:46;;;;;;;2.43;2.23;;;10.60;99.90;;;;;;5025478;28;20293;-85
2024/02/14 03:11:11;;;;;;;2.80;2.23;;;10.60;99.90;;;;;;5032427;28;20468;-82
2024/02/14 03:13:40;;;;;;;6.90;2.73;;;10.60;99.90;;;;;;5021846;28;20190;-84
2024/02/14 03:16:06;;;;;;;3.30;2.40;;;10.60;1.00;;;;;;5018428;28;20195;-86
2024/02/14 03:18:32;;;;;;;4.30;2.00;;;10.50;1.00;;;;;;5020559;28;20456;-85
2024/02/14 03:20:58;;;;;;;3.23;2.13;;;10.60;99.90;;;;;;5011503;28;20994;-83
2024/02/14 03:23:24;;;;;;;3.63;2.40;;;10.50;1.00;;;;;;5019556;28;21104;-82
2024/02/14 03:25:51;;;;;;;4.00;2.80;;;10.50;1.00;;;;;;5036214;28;20206;-84
2024/02/14 03:28:17;;;;;;;4.73;3.43;;;10.50;1.00;;;;;;5026190;28;20198;-83
2024/02/14 03:30:43;;;;;;;3.20;2.10;;;10.50;1.00;;;;;;5021125;28;20430;-84
2024/02/14 03:33:09;;;;;;;3.60;2.37;;;10.50;1.00;;;;;;5030840;28;20855;-85
2024/02/14 03:35:34;;;;;;;4.97;2.57;;;10.50;1.00;;;;;;5028730;28;20241;-81
2024/02/14 03:38:01;;;;;;;3.00;2.40;;;10.50;1.00;;;;;;5021502;28;20209;-82
2024/02/14 03:40:29;;;;;;;7.13;2.90;;;10.40;1.00;;;;;;5015680;28;20203;-84
2024/02/14 03:42:55;;;;;;;5.00;2.30;;;10.40;1.00;;;;;;5029971;28;20421;-85
2024/02/14 03:45:21;;;;;;;3.07;2.70;;;10.40;1.00;;;;;;5020800;28;20437;-84
2024/02/14 03:47:47;;;;;;;4.70;3.00;;;10.40;1.00;;;;;;5022037;28;20641;-84
2024/02/14 03:50:12;;;;;;;4.77;2.53;;;10.40;1.00;;;;;;5008552;28;20889;-85
2024/02/14 03:52:38;;;;;;;2.83;2.50;;;10.50;1.00;;;;;;5030961;28;20185;-84
2024/02/14 03:55:06;;;;;;;5.27;3.00;;;10.40;1.00;;;;;;5025274;28;20262;-83
2024/02/14 03:57:35;;;;;;;3.97;2.93;;;10.40;1.00;;;;;;5031123;28;20181;-86
2024/02/14 04:00:03;;;;;;;4.20;3.13;;;10.40;1.00;;;;;;5016732;28;20484;-86
2024/02/14 04:02:29;;;;;;;10.13;2.83;;;10.40;1.00;;;;;;5028996;28;20438;-83
2024/02/14 04:04:55;;;;;;;3.20;2.50;;;10.40;1.00;;;;;;5028003;28;20476;-85
2024/02/14 04:07:21;;;;;;;4.20;2.53;;;10.40;1.00;;;;;;5032414;28;20187;-85
2024/02/14 04:09:47;;;;;;;3.37;2.70;;;10.40;1.00;;;;;;5033169;28;20559;-85
2024/02/14 04:12:13;;;;;;;3.80;3.07;;;10.40;1.00;;;;;;5012115;28;20433;-84
2024/02/14 04:14:39;;;;;;;4.07;2.50;;;10.40;1.00;;;;;;5011407;28;20178;-85
2024/02/14 04:17:07;;;;;;;7.90;2.50;;;10.40;1.00;;;;;;5023496;28;21134;-84
2024/02/14 04:19:33;;;;;;;6.90;2.73;;;10.40;1.00;;;;;;5030251;28;20194;-81
2024/02/14 04:21:58;;;;;;;4.70;3.73;;;10.40;1.00;;;;;;5011636;28;20478;-85
2024/02/14 04:24:24;;;;;;;2.83;2.17;;;10.40;1.00;;;;;;5022338;28;20190;-86
2024/02/14 04:26:50;;;;;;;4.20;3.17;;;10.40;1.00;;;;;;5030068;28;20186;-85
2024/02/14 04:29:15;;;;;;;3.27;2.47;;;10.40;1.00;;;;;;5024713;28;20225;-83
2024/02/14 04:31:42;;;;;;;3.50;2.80;;;10.40;1.00;;;;;;5031461;28;20186;-82
2024/02/14 04:34:09;;;;;;;4.90;2.33;;;10.40;1.00;;;;;;5022122;28;20644;-85
2024/02/14 04:36:35;;;;;;;6.40;3.00;;;10.40;1.00;;;;;;5022031;28;20492;-83
2024/02/14 04:39:01;;;;;;;8.63;2.60;;;10.40;1.00;;;;;;5010675;28;20461;-82
2024/02/14 04:41:26;;;;;;;5.50;2.70;;;10.40;1.00;;;;;;5031004;28;20618;-84
2024/02/14 04:43:52;;;;;;;3.70;2.67;;;10.50;1.00;;;;;;5025382;28;20171;-84
2024/02/14 04:46:18;;;;;;;3.30;2.93;;;10.50;1.00;;;;;;5024892;28;20208;-84
2024/02/14 04:48:43;;;;;;;4.53;2.83;;;10.50;1.00;;;;;;5031588;28;20204;-84
2024/02/14 04:51:09;;;;;;;3.00;2.67;;;10.50;1.00;;;;;;5018482;28;20445;-83
2024/02/14 04:53:35;;;;;;;3.60;2.77;;;10.50;1.00;;;;;;5024339;28;20648;-85
2024/02/14 04:56:01;;;;;;;5.20;2.87;;;10.50;1.00;;;;;;5022564;28;20282;-83
2024/02/14 04:58:26;;;;;;;3.33;3.03;;;10.40;1.00;;;;;;5013553;28;20450;-84
2024/02/14 05:00:52;;;;;;;3.60;3.27;;;10.40;1.00;;;;;;5025772;28;20669;-83
2024/02/14 05:03:18;;;;;;;3.20;2.90;;;10.40;1.00;;;;;;5015824;28;20179;-85
2024/02/14 05:05:44;;;;;;;4.90;3.43;;;10.30;1.00;;;;;;5001930;28;20959;-85
2024/02/14 05:08:09;;;;;;;5.60;2.90;;;10.30;1.00;;;;;;5020220;28;20203;-85
2024/02/14 05:10:35;;;;;;;6.80;3.73;;;10.30;1.00;;;;;;5028024;28;20597;-84
2024/02/14 05:13:01;;;;;;;5.00;3.47;;;10.20;1.00;;;;;;5025412;28;20190;-83
2024/02/14 05:15:26;;;;;;;3.70;3.40;;;10.30;1.00;;;;;;5033503;28;20182;-85
2024/02/14 05:17:52;;;;;;;5.17;3.10;;;10.20;1.00;;;;;;5029460;28;20198;-85
2024/02/14 05:20:18;;;;;;;4.67;3.27;;;10.20;1.00;;;;;;5019842;28;20213;-83
2024/02/14 05:22:44;;;;;;;5.97;2.90;;;10.30;1.00;;;;;;5023114;28;20569;-84
2024/02/14 05:25:09;;;;;;;8.90;3.97;;;10.30;1.00;;;;;;5024149;28;20175;-84
2024/02/14 05:27:36;;;;;;;6.07;3.50;;;10.30;1.00;;;;;;5022412;28;20429;-84
2024/02/14 05:30:05;;;;;;;4.17;3.57;;;10.30;1.00;;;;;;5029885;28;20208;-84
2024/02/14 05:32:31;;;;;;;5.40;3.40;;;10.20;1.00;;;;;;5018520;28;20474;-84
2024/02/14 05:34:57;;;;;;;4.27;3.70;;;10.20;1.00;;;;;;5017027;28;20430;-83
2024/02/14 05:37:23;;;;;;;6.10;4.00;;;10.20;1.00;;;;;;5022200;28;20464;-84
2024/02/14 05:39:48;;;;;;;5.70;3.77;;;10.20;1.00;;;;;;5020195;28;20438;-81
2024/02/14 05:42:15;;;;;;;4.70;4.10;;;10.20;1.00;;;;;;5029581;28;20656;-83
2024/02/14 05:44:42;;;;;;;4.67;4.23;;;10.10;1.00;;;;;;5025121;28;20182;-82
2024/02/14 05:47:08;;;;;;;5.57;3.40;;;10.10;1.00;;;;;;5008565;28;20449;-83
2024/02/14 05:49:34;;;;;;;5.80;3.73;;;10.10;1.00;;;;;;5025521;28;20995;-84
2024/02/14 05:52:00;;;;;;;5.30;3.60;;;10.10;1.00;;;;;;5022446;28;20511;-82
2024/02/14 05:54:25;;;;;;;6.27;3.60;;;10.10;1.00;;;;;;5014761;28;20182;-84
2024/02/14 05:56:51;;;;;;;4.90;3.87;;;10.20;1.00;;;;;;5026042;28;20187;-83
2024/02/14 05:59:16;;;;;;;4.73;3.53;;;10.20;1.00;;;;;;5019207;28;20883;-83
2024/02/14 06:01:42;;;;;;;7.13;3.20;;;10.20;1.00;;;;;;5020431;28;20289;-85
2024/02/14 06:04:08;;;;;;;6.30;4.33;;;10.20;1.00;;;;;;5013700;28;20204;-82
2024/02/14 06:06:34;;;;;;;4.77;2.90;;;10.30;1.00;;;;;;5020860;28;20171;-84
2024/02/14 06:08:59;;;;;;;4.00;3.27;;;10.30;1.00;;;;;;5014208;28;20452;-84
2024/02/14 06:11:25;;;;;;;4.10;2.87;;;10.30;1.00;;;;;;5013978;28;20537;-84
2024/02/14 06:13:50;;;;;;;5.77;4.57;;;10.40;1.00;;;;;;5013291;28;20251;-85
2024/02/14 06:16:16;;;;;;;9.00;3.00;;;10.40;1.00;;;;;;5022561;28;20182;-83
2024/02/14 06:18:42;;;;;;;5.07;3.73;;;10.40;1.00;;;;;;5014891;28;20210;-84
2024/02/14 06:21:07;;;;;;;3.87;3.40;;;10.40;1.00;;;;;;5014171;28;20220;-84
2024/02/14 06:23:33;;;;;;;5.63;3.20;;;10.40;1.00;;;;;;5014157;28;20175;-83
2024/02/14 06:25:59;;;;;;;4.83;3.40;;;10.40;1.00;;;;;;5014076;28;20167;-82
2024/02/14 06:28:25;;;;;;;4.53;2.93;;;10.40;1.00;;;;;;5020351;28;20445;-84
2024/02/14 06:30:50;;;;;;;9.60;3.80;;;10.40;1.00;;;;;;5024045;28;20642;-84
2024/02/14 06:33:16;;;;;;;4.53;3.67;;;10.40;1.00;;;;;;5020776;28;20194;-83
2024/02/14 06:35:41;;;;;;;6.87;3.80;;;10.50;1.00;;;;;;5012898;28;20235;-84
2024/02/14 06:38:07;;;;;;;4.67;3.27;;;10.50;1.00;;;;;;5019132;28;20361;-81
2024/02/14 06:40:33;;;;;;;5.13;3.20;;;10.50;1.00;;;;;;5013979;28;20203;-84
2024/02/14 06:43:02;;;;;;;4.03;2.93;;;10.50;1.00;;;;;;5016584;28;20214;-85
2024/02/14 06:45:27;;;;;;;3.80;2.90;;;10.50;1.00;;;;;;5018173;28;20492;-84
2024/02/14 06:47:54;;;;;;;3.80;3.07;;;10.40;1.00;;;;;;5021010;28;20453;-84
2024/02/14 06:50:20;;;;;;;3.33;3.00;;;10.50;1.00;;;;;;5028481;28;20188;-83
2024/02/14 06:52:45;;;;;;;6.60;3.03;;;10.50;1.00;;;;;;5021103;28;20438;-85
2024/02/14 06:55:11;;;;;;;4.47;3.13;;;10.60;1.00;;;;;;5015147;28;20222;-83
2024/02/14 06:57:36;;;;;;;4.50;2.80;;;10.60;1.00;;;;;;5023318;28;20186;-85
2024/02/14 07:00:05;;;;;;;4.20;2.87;;;10.60;1.00;;;;;;5004100;28;20284;-82
2024/02/14 07:02:31;;;;;;;4.43;3.30;;;10.60;1.00;;;;;;5021512;28;20214;-82
2024/02/14 07:04:57;;;;;;;5.67;3.10;;;10.70;1.00;;;;;;5022728;28;20501;-83
2024/02/14 07:07:22;;;;;;;6.80;2.97;;;10.70;1.00;;;;;;5030181;28;20206;-83
2024/02/14 07:09:48;;;;;;;6.47;3.20;;;10.80;1.00;;;;;;5019803;28;20174;-85
2024/02/14 07:12:13;;;;;;;6.17;3.03;;;10.80;1.00;;;;;;5023420;28;20219;-83
2024/02/14 07:14:39;;;;;;;5.80;2.73;;;10.80;1.00;;;;;;5023817;28;20659;-82
2024/02/14 07:17:05;;;;;;;4.70;3.67;;;10.80;1.00;;;;;;5015621;28;20277;-87
2024/02/14 07:19:30;;;;;;;7.13;2.87;;;10.90;1.00;;;;;;5016720;28;20234;-82
2024/02/14 07:21:56;;;;;;;4.10;2.93;;;10.90;1.00;;;;;;5019035;28;20207;-82
2024/02/14 07:24:21;;;;;;;5.53;3.10;;;10.90;1.00;;;;;;5025485;28;20179;-83
2024/02/14 07:26:47;;;;;;;4.07;2.93;;;11.00;1.00;;;;;;5027403;28;20256;-83
2024/02/14 07:29:13;;;;;;;4.33;2.77;;;11.10;1.00;;;;;;5007056;28;20203;-85
2024/02/14 07:31:38;;;;;;;4.10;2.77;;;11.20;1.00;;;;;;5016135;28;20182;-81
2024/02/14 07:34:04;;;;;;;4.80;2.30;;;11.30;1.00;;;;;;5020700;28;20190;-82
2024/02/14 07:36:31;;;;;;;4.37;2.30;;;11.40;1.00;;;;;;4998531;28;20288;-83
2024/02/14 07:38:57;;;;;;;5.97;3.10;;;11.50;1.00;;;;;;5024307;28;20199;-85
2024/02/14 07:41:23;;;;;;;4.50;2.73;;;11.60;1.00;;;;;;5000482;28;21117;-82
2024/02/14 07:43:48;;;;;;;4.17;2.77;;;11.70;1.00;;;;;;5020526;28;20187;-84
2024/02/14 07:46:19;;;;;;;4.23;2.70;;;11.70;99.90;;;;;;5020444;28;20608;-82
2024/02/14 07:48:44;;;;;;;4.77;3.03;;;11.60;1.00;;;;;;5021375;28;20203;-85
2024/02/14 07:51:10;;;;;;;3.77;3.00;;;11.60;1.00;;;;;;5029007;28;20437;-82
2024/02/14 07:53:35;;;;;;;7.67;2.70;;;11.60;1.00;;;;;;5016593;28;20186;-83
2024/02/14 07:56:01;;;;;;;3.40;2.40;;;11.60;1.00;;;;;;5021539;28;20199;-83
2024/02/14 07:58:27;;;;;;;4.70;2.90;;;11.70;1.00;;;;;;5025059;28;20206;-83
2024/02/14 08:00:52;;;;;;;3.70;2.33;;;11.70;1.00;;;;;;5022703;28;20219;-85
2024/02/14 08:03:18;;;;;;;5.00;2.77;;;11.70;1.00;;;;;;5021845;28;20275;-82
2024/02/14 08:05:43;;;;;;;3.60;2.63;;;11.80;1.00;;;;;;5015798;28;20196;-83
2024/02/14 08:08:09;;;;;;;3.93;2.40;;;11.90;99.90;;;;;;5006434;28;20194;-84
2024/02/14 08:10:34;;;;;;;2.53;2.00;;;12.00;99.90;;;;;;5020591;28;20235;-83
2024/02/14 08:13:00;;;;;;;3.63;2.53;;;12.10;99.90;;;;;;5015622;28;20190;-83
2024/02/14 08:15:25;;;;;;;4.03;2.47;;;12.10;99.90;;;;;;5005556;28;20187;-83
2024/02/14 08:17:53;;;;;;;5.40;2.17;;;12.10;99.90;;;;;;5022192;28;20206;-85
2024/02/14 08:20:19;;;;;;;7.37;2.50;;;12.10;99.90;;;;;;5020535;28;20175;-83
2024/02/14 08:22:44;;;;;;;2.80;2.17;;;12.10;99.90;;;;;;5019344;28;20523;-83
2024/02/14 08:25:11;;;;;;;5.30;2.70;;;12.20;99.90;;;;;;5025737;28;20234;-83
2024/02/14 08:27:37;;;;;;;5.83;3.13;;;12.20;99.90;;;;;;5021988;28;20206;-84
2024/02/14 08:30:04;;;;;;;4.60;2.60;;;12.20;90.60;;;;;;5002952;28;20430;-85
2024/02/14 08:32:30;;;;;;;5.00;2.17;;;12.30;71.50;;;;;;5022001;28;20190;-84
2024/02/14 08:34:56;;;;;;;5.73;2.70;;;12.20;1.00;;;;;;5022079;28;20448;-83
2024/02/14 08:37:22;;;;;;;5.53;2.53;;;12.20;11.40;;;;;;5020589;28;20222;-84
2024/02/14 08:39:47;;;;;;;5.60;2.93;;;12.30;1.00;;;;;;5023061;28;20198;-83
2024/02/14 08:42:13;;;;;;;2.30;1.87;;;12.40;1.00;;;;;;5024393;28;20472;-86
2024/02/14 08:44:38;;;;;;;4.10;1.90;;;12.50;1.00;;;;;;5025242;28;20193;-83
2024/02/14 08:47:04;;;;;;;3.60;2.20;;;12.60;99.90;;;;;;5019261;28;20185;-82
2024/02/14 08:49:30;;;;;;;3.30;2.07;;;12.70;99.90;;;;;;5016539;28;20214;-83
2024/02/14 08:51:55;;;;;;;4.00;1.70;;;12.90;69.60;;;;;;5016420;28;20441;-85
2024/02/14 08:54:23;;;;;;;5.30;2.50;;;13.00;1.00;;;;;;5021321;28;20583;-83
2024/02/14 08:56:48;;;;;;;7.30;2.13;;;13.30;99.90;;;;;;5027725;28;20181;-85
2024/02/14 08:59:14;;;;;;;5.60;2.10;;;13.50;99.90;;;;;;5012792;28;20479;-83
2024/02/14 09:01:39;;;;;;;2.67;2.00;;;13.60;99.90;;;;;;5007806;28;20232;-86
2024/02/14 09:04:05;;;;;;;8.97;1.80;;;13.80;99.90;;;;;;5018152;28;20294;-81
2024/02/14 09:06:32;;;;;;;3.10;1.97;;;14.10;1.00;;;;;;5019745;28;20655;-83
2024/02/14 09:08:58;;;;;;;5.13;1.47;;;14.10;99.90;;;;;;5016073;28;20210;-85
2024/02/14 09:11:23;;;;;;;6.50;2.13;;;14.20;1.00;;;;;;5032371;28;20493;-83
2024/02/14 09:13:53;;;;;;;7.43;2.47;;;14.30;1.00;;;;;;5019368;28;20215;-82
2024/02/14 09:16:19;;;;;;;3.10;1.60;;;14.40;1.00;;;;;;5003707;28;20202;-84
2024/02/14 09:18:47;;;;;;;5.00;1.70;;;14.60;99.90;;;;;;5013115;28;20465;-84
2024/02/14 09:21:15;;;;;;;2.40;1.70;;;14.60;98.30;;;;;;5000297;28;20217;-81
2024/02/14 09:23:41;;;;;;;6.40;1.67;;;14.60;63.50;;;;;;5005877;28;20443;-84
2024/02/14 09:26:07;;;;;;;4.43;2.00;;;14.50;1.00;;;;;;5022052;28;20439;-83
2024/02/14 09:28:34;;;;;;;3.93;2.07;;;14.50;1.00;;;;;;5016016;28;20453;-82
2024/02/14 09:31:00;;;;;;;8.70;2.10;;;14.50;65.00;;;;;;5016205;28;20453;-81
2024/02/14 09:33:28;;;;;;;4.03;1.93;;;14.40;99.90;;;;;;5018782;28;20596;-84
2024/02/14 09:35:54;;;;;;;5.03;2.03;;;14.20;99.90;;;;;;5021805;28;20498;-83
2024/02/14 09:38:19;;;;;;;4.63;1.70;;;14.20;99.90;;;;;;5022181;28;20218;-82
2024/02/14 09:40:45;;;;;;;3.07;1.50;;;14.10;1.00;;;;;;5013115;28;20214;-85
2024/02/14 09:43:23;;;;;;;2.90;2.17;;;13.90;1.00;;;;;;5022292;28;20270;-83
2024/02/14 09:45:50;;;;;;;6.67;2.50;;;13.80;1.00;;;;;;5022017;28;20186;-83
2024/02/14 09:48:18;;;;;;;3.87;2.23;;;13.70;99.90;;;;;;5014956;28;20488;-83
2024/02/14 09:50:46;;;;;;;5.00;2.10;;;13.60;99.90;;;;;;5021450;28;20441;-83
2024/02/14 09:53:13;;;;;;;4.67;1.90;;;13.60;1.00;;;;;;5024859;28;20445;-84
2024/02/14 09:55:40;;;;;;;4.00;1.90;;;13.60;1.00;;;;;;5029675;28;20436;-84
2024/02/14 09:58:06;;;;;;;5.47;1.80;;;13.50;90.80;;;;;;5033875;28;20601;-82
2024/02/14 10:00:33;;;;;;;4.77;2.00;;;13.60;99.90;;;;;;5028988;28;20490;-83
2024/02/14 10:02:59;;;;;;;5.33;3.10;;;13.80;50.40;;;;;;5019919;28;20531;-83
2024/02/14 10:05:25;;;;;;;6.53;2.67;;;13.90;1.00;;;;;;5018259;28;20494;-83
2024/02/14 10:07:50;;;;;;;6.70;2.33;;;13.90;99.90;;;;;;5025146;28;20868;-84
2024/02/14 10:10:16;;;;;;;21.87;5.20;;;13.90;99.90;;;;;;5007614;28;20513;-83
2024/02/14 10:12:42;;;;;;;2.63;1.60;;;14.00;99.90;;;;;;5025085;28;20195;-84
2024/02/14 10:15:08;;;;;;;5.70;2.73;;;14.10;99.90;;;;;;5019580;28;20219;-84
2024/02/14 10:17:34;;;;;;;6.33;2.00;;;14.10;1.00;;;;;;5021573;28;20804;-83
2024/02/14 10:20:06;;;;;;;5.33;2.37;;;14.10;99.90;;;;;;5022792;28;20437;-85
2024/02/14 10:22:38;;;;;;;3.13;2.00;;;14.10;99.90;;;;;;5020940;28;20206;-84
2024/02/14 10:25:11;;;;;;;5.33;1.73;;;14.20;99.90;;;;;;5017806;28;20502;-85
2024/02/14 10:27:40;;;;;;;3.63;1.93;;;14.20;99.90;;;;;;5019699;28;20444;-83
2024/02/14 10:30:11;;;;;;;7.00;2.20;;;14.30;10.80;;;;;;5023475;28;20506;-85
2024/02/14 10:32:37;;;;;;;6.03;1.67;;;14.40;1.00;;;;;;5022652;28;20441;-83
2024/02/14 10:35:08;;;;;;;5.43;1.50;;;14.40;99.90;;;;;;5019294;28;20455;-83
2024/02/14 10:37:34;;;;;;;2.10;1.33;;;14.50;1.00;;;;;;5014241;28;20459;-83
2024/02/14 10:40:02;;;;;;;2.90;1.67;;;14.60;99.90;;;;;;5016291;28;20444;-82
2024/02/14 10:42:28;;;;;;;4.17;1.70;;;14.80;99.90;;;;;;5020819;28;20548;-83
2024/02/14 10:44:55;;;;;;;4.27;1.80;;;14.90;1.00;;;;;;5019703;28;20986;-83
2024/02/14 10:47:24;;;;;;;2.93;1.60;;;15.00;1.00;;;;;;5013807;28;20437;-83
2024/02/14 10:49:51;;;;;;;3.87;1.47;;;15.00;99.90;;;;;;5015513;28;20818;-83
2024/02/14 10:52:18;;;;;;;2.53;1.37;;;15.20;99.90;;;;;;5017628;28;20442;-84
2024/02/14 10:54:52;;;;;;;5.20;1.87;;;15.40;99.90;;;;;;5011617;28;20551;-83
2024/02/14 10:57:21;;;;;;;2.70;1.47;;;15.50;1.00;;;;;;5009969;28;20450;-83
2024/02/14 10:59:48;;;;;;;3.67;1.27;;;15.60;1.00;;;;;;5021032;28;20468;-84
2024/02/14 11:02:14;;;;;;;2.83;1.33;;;15.90;1.00;;;;;;5015532;28;20514;-84
2024/02/14 11:04:40;;;;;;;4.03;1.57;;;16.40;99.90;;;;;;5019614;28;20594;-84
2024/02/14 11:07:10;;;;;;;6.80;1.30;;;16.70;99.90;;;;;;5023411;28;20516;-84
2024/02/14 11:09:40;;;;;;;3.47;1.30;;;16.60;84.00;;;;;;5015223;28;20899;-82
2024/02/14 11:12:10;;;;;;;3.03;1.20;;;16.40;99.90;;;;;;5024256;28;20502;-83
2024/02/14 11:14:36;;;;;;;3.50;1.70;;;16.10;99.90;;;;;;5021827;28;20443;-82
2024/02/14 11:17:03;;;;;;;3.03;1.70;;;15.60;99.90;;;;;;5028814;28;20472;-83
2024/02/14 11:19:40;;;;;;;4.80;1.97;;;15.30;1.00;;;;;;5035324;28;20540;-85
2024/02/14 11:22:13;;;;;;;4.17;1.97;;;15.20;1.00;;;;;;5026907;28;20476;-82
2024/02/14 11:24:39;;;;;;;1.90;1.17;;;15.30;99.90;;;;;;5024826;28;21041;-84
2024/02/14 11:27:12;;;;;;;2.77;1.70;;;15.20;1.00;;;;;;5006210;28;20979;-85
2024/02/14 11:29:50;;;;;;;3.60;1.37;;;15.00;1.00;;;;;;5023687;28;20540;-82
2024/02/14 11:32:17;;;;;;;4.30;1.33;;;15.00;1.00;;;;;;5023852;28;20437;-83
2024/02/14 11:34:44;;;;;;;2.30;1.43;;;15.00;1.00;;;;;;5011008;28;20473;-84
2024/02/14 11:37:09;;;;;;;2.03;1.20;;;14.90;1.00;;;;;;5024574;28;20468;-84
2024/02/14 11:39:35;;;;;;;3.47;1.53;;;14.80;1.00;;;;;;5019636;28;20527;-85
2024/02/14 11:42:01;;;;;;;2.93;1.20;;;14.70;99.90;;;;;;5021642;28;20328;-83
2024/02/14 11:44:27;;;;;;;2.70;1.27;;;14.60;99.90;;;;;;5023607;28;20666;-83
2024/02/14 11:46:53;;;;;;;2.37;1.20;;;14.50;1.00;;;;;;5022827;28;20523;-83
2024/02/14 11:49:19;;;;;;;3.60;1.30;;;14.40;9.20;;;;;;5018037;28;20207;-84
2024/02/14 11:51:45;;;;;;;2.23;1.33;;;14.40;99.90;;;;;;5019683;28;20528;-83
2024/02/14 11:54:10;;;;;;;2.50;1.20;;;14.30;1.00;;;;;;5022070;28;20190;-83
2024/02/14 11:56:39;;;;;;;5.10;1.90;;;14.20;1.00;;;;;;5026490;28;20185;-83
2024/02/14 11:59:07;;;;;;;3.10;2.03;;;14.20;99.90;;;;;;5017926;28;20229;-82
2024/02/14 12:01:37;;;;;;;3.70;1.63;;;14.10;1.00;;;;;;5015837;28;20468;-83
2024/02/14 12:04:08;;;;;;;4.53;1.30;;;14.00;1.00;;;;;;5019051;28;20445;-82
2024/02/14 12:06:35;;;;;;;3.37;1.40;;;14.00;1.00;;;;;;5015560;28;20452;-80
2024/02/14 12:09:10;;;;;;;4.30;1.20;;;14.00;8.50;;;;;;5014480;28;20534;-83
2024/02/14 12:11:40;;;;;;;2.07;1.23;;;14.00;1.00;;;;;;5019968;28;20446;-82
2024/02/14 12:14:08;;;;;;;2.47;1.30;;;14.00;1.00;;;;;;5014272;28;20441;-81
2024/02/14 12:16:37;;;;;;;2.57;1.10;;;14.10;1.00;;;;;;5022381;28;20444;-83
2024/02/14 12:19:08;;;;;;;2.30;1.27;;;14.30;99.90;;;;;;5003149;28;20990;-83
2024/02/14 12:21:38;;;;;;;2.80;1.03;;;14.40;1.00;;;;;;5013840;28;20519;-82
2024/02/14 12:24:08;;;;;;;1.27;0.93;;;14.50;1.00;;;;;;5012761;28;20816;-84
2024/02/14 12:26:36;;;;;;;2.50;1.00;;;14.60;1.00;;;;;;5017714;28;20458;-85
2024/02/14 12:29:03;;;;;;;1.40;0.77;;;14.70;1.00;;;;;;5016219;28;20497;-83
2024/02/14 12:31:30;;;;;;;1.23;0.83;;;14.80;99.90;;;;;;5023478;28;20524;-80
2024/02/14 12:34:01;;;;;;;2.13;0.90;;;14.80;1.00;;;;;;5019362;28;20502;-83
2024/02/14 12:36:31;;;;;;;1.50;0.83;;;14.90;92.30;;;;;;5018968;28;21683;-81
2024/02/14 12:38:57;;;;;;;1.40;0.87;;;15.00;1.00;;;;;;5022555;28;20540;-82
2024/02/14 12:41:26;;;;;;;1.20;0.70;;;15.00;1.00;;;;;;5022316;28;20560;-84
2024/02/14 12:43:53;;;;;;;2.03;0.83;;;14.90;1.00;;;;;;5014788;28;20187;-83
2024/02/14 12:46:19;;;;;;;1.27;0.80;;;14.80;99.90;;;;;;5019364;28;20520;-85
2024/02/14 12:48:44;;;;;;;1.57;0.83;;;14.70;99.90;;;;;;5015013;28;20460;-83